Time;durP1;ratioP1;P1;durP2;ratioP2;P2;SDS_P1;SDS_P2;PMS_P1;PMS_P2;Temp;Humidity;BMP_temperature;BMP_pressure;BME280_temperature;BME280_humidity;BME280_pressure;Samples;Min_cycle;Max_cycle;Signal;HPM_P1;HPM_P2
2023/09/15 00:00:56;;;;;;;;;;;;;;;15.95;100.00;97295.52;110167;1241;69419;-69
2023/09/15 00:03:35;;;;;;;;;;;;;;;15.92;100.00;97293.45;110161;1245;58919;-67
2023/09/15 00:06:05;;;;;;;;;;;;;;;15.90;100.00;97293.12;110184;1243;58866;-69
2023/09/15 00:08:35;;;;;;;;;;;;;;;15.90;100.00;97296.16;110131;1241;70641;-68
2023/09/15 00:11:13;;;;;;;;;;;;;;;15.87;100.00;97294.71;110201;1245;69254;-68
2023/09/15 00:13:45;;;;;;;;;;;;;;;15.87;100.00;97297.36;110142;1244;69323;-66
2023/09/15 00:16:16;;;;;;;;;;;;;;;15.83;100.00;97296.09;110207;1243;59265;-68
2023/09/15 00:18:46;;;;;;;;;;;;;;;15.81;100.00;97295.79;110194;1243;58929;-67
2023/09/15 00:21:17;;;;;;;;;;;;;;;15.77;100.00;97297.15;110159;1241;70715;-67
2023/09/15 00:23:47;;;;;;;;;;;;;;;15.76;100.00;97298.65;110149;1245;69220;-67
2023/09/15 00:26:17;;;;;;;;;;;;;;;15.75;100.00;97298.45;110101;1241;69899;-67
2023/09/15 00:28:52;;;;;;;;;;;;;;;15.74;100.00;97298.39;110051;1244;58944;-68
2023/09/15 00:31:22;;;;;;;;;;;;;;;15.74;100.00;97303.95;110205;1241;58879;-67
2023/09/15 00:33:52;;;;;;;;;;;;;;;15.72;100.00;97310.85;110159;1243;70783;-66
2023/09/15 00:36:26;;;;;;;;;;;;;;;15.71;100.00;97316.14;110113;1245;69303;-68
2023/09/15 00:38:56;;;;;;;;;;;;;;;15.71;100.00;97316.39;110156;1241;69148;-69
2023/09/15 00:41:26;;;;;;;;;;;;;;;15.71;100.00;97317.96;110137;1243;58863;-68
2023/09/15 00:43:57;;;;;;;;;;;;;;;15.71;100.00;97320.25;110138;1242;58894;-67
2023/09/15 00:46:30;;;;;;;;;;;;;;;15.73;100.00;97324.27;110135;1241;69832;-67
2023/09/15 00:49:02;;;;;;;;;;;;;;;15.75;100.00;97321.98;110153;1244;69695;-67
2023/09/15 00:51:32;;;;;;;;;;;;;;;15.75;100.00;97321.39;110163;1241;69232;-67
2023/09/15 00:54:04;;;;;;;;;;;;;;;15.77;100.00;97326.34;110128;1242;58892;-67
2023/09/15 00:56:36;;;;;;;;;;;;;;;15.77;100.00;97327.52;110194;1244;58859;-67
2023/09/15 00:59:08;;;;;;;;;;;;;;;15.77;100.00;97327.09;110094;1241;70948;-67
2023/09/15 01:01:40;;;;;;;;;;;;;;;15.77;100.00;97329.30;110172;1242;68227;-67
2023/09/15 01:04:12;;;;;;;;;;;;;;;15.77;100.00;97332.30;110131;1245;69303;-66
2023/09/15 01:06:45;;;;;;;;;;;;;;;15.76;100.00;97332.25;110137;1245;58863;-67
2023/09/15 01:09:25;;;;;;;;;;;;;;;15.74;100.00;97333.97;110162;1242;58945;-67
2023/09/15 01:11:57;;;;;;;;;;;;;;;15.73;100.00;97337.80;110193;1243;70593;-67
2023/09/15 01:14:28;;;;;;;;;;;;;;;15.70;100.00;97335.42;110151;1246;68569;-67
2023/09/15 01:16:58;;;;;;;;;;;;;;;15.70;100.00;97334.54;110168;1245;69294;-67
2023/09/15 01:19:53;;;;;;;;;;;;;;;15.69;100.00;97336.98;110156;1241;58973;-67
2023/09/15 01:22:31;;;;;;;;;;;;;;;15.69;100.00;97342.73;110191;1241;58895;-67
2023/09/15 01:25:13;;;;;;;;;;;;;;;15.69;100.00;97350.80;110100;1241;69769;-67
2023/09/15 01:28:03;;;;;;;;;;;;;;;15.66;100.00;97348.79;110154;1246;69488;-67
2023/09/15 01:30:35;;;;;;;;;;;;;;;15.66;100.00;97352.36;110144;1242;68504;-67
2023/09/15 01:33:09;;;;;;;;;;;;;;;15.65;100.00;97353.50;110184;1245;58870;-67
2023/09/15 01:35:40;;;;;;;;;;;;;;;15.63;100.00;97358.08;110175;1242;58863;-69
2023/09/15 01:38:13;;;;;;;;;;;;;;;15.59;100.00;97356.30;110172;1243;70601;-68
2023/09/15 01:40:43;;;;;;;;;;;;;;;15.56;100.00;97358.73;110157;1241;69236;-68
2023/09/15 01:43:14;;;;;;;;;;;;;;;15.53;100.00;97361.94;110140;1245;69288;-67
2023/09/15 01:45:46;;;;;;;;;;;;;;;15.52;100.00;97362.45;110156;1245;58946;-67
2023/09/15 01:48:17;;;;;;;;;;;;;;;15.51;100.00;97360.10;110218;1243;58876;-67
2023/09/15 01:50:48;;;;;;;;;;;;;;;15.49;100.00;97358.98;110140;1245;68874;-68
2023/09/15 01:53:20;;;;;;;;;;;;;;;15.50;100.00;97357.16;110206;1244;69278;-68
2023/09/15 01:55:50;;;;;;;;;;;;;;;15.51;100.00;97357.80;110144;1243;68361;-67
2023/09/15 01:58:20;;;;;;;;;;;;;;;15.53;100.00;97356.36;110074;1242;58915;-67
2023/09/15 02:00:51;;;;;;;;;;;;;;;15.55;100.00;97359.31;110094;1245;58824;-68
2023/09/15 02:03:22;;;;;;;;;;;;;;;15.56;100.00;97365.55;110205;1245;70020;-67
2023/09/15 02:06:03;;;;;;;;;;;;;;;15.57;100.00;97365.64;110140;1241;68673;-67
2023/09/15 02:08:33;;;;;;;;;;;;;;;15.56;100.00;97362.21;110168;1245;69288;-69
2023/09/15 02:11:07;;;;;;;;;;;;;;;15.54;100.00;97365.89;110177;1243;58883;-67
2023/09/15 02:13:40;;;;;;;;;;;;;;;15.55;100.00;97365.96;110134;1244;58878;-69
2023/09/15 02:16:14;;;;;;;;;;;;;;;15.57;100.00;97366.38;110146;1242;70509;-67
2023/09/15 02:18:44;;;;;;;;;;;;;;;15.58;100.00;97367.13;110174;1244;69247;-68
2023/09/15 02:21:15;;;;;;;;;;;;;;;15.58;100.00;97371.40;110137;1244;69883;-67
2023/09/15 02:23:56;;;;;;;;;;;;;;;15.60;100.00;97370.77;110133;1242;58941;-66
2023/09/15 02:26:27;;;;;;;;;;;;;;;15.61;100.00;97372.07;110232;1241;58893;-68
2023/09/15 02:28:58;;;;;;;;;;;;;;;15.61;100.00;97374.27;110209;1241;70584;-67
2023/09/15 02:31:30;;;;;;;;;;;;;;;15.61;100.00;97373.85;110215;1244;68334;-67
2023/09/15 02:34:00;;;;;;;;;;;;;;;15.61;100.00;97371.05;110177;1245;69304;-66
2023/09/15 02:36:33;;;;;;;;;;;;;;;15.63;100.00;97368.64;110178;1245;59759;-68
2023/09/15 02:39:03;;;;;;;;;;;;;;;15.63;100.00;97370.86;110186;1245;59627;-67
2023/09/15 02:41:35;;;;;;;;;;;;;;;15.65;100.00;97369.13;110146;1241;71842;-67
2023/09/15 02:44:11;;;;;;;;;;;;;;;15.66;100.00;97369.17;110138;1244;69085;-67
2023/09/15 02:46:44;;;;;;;;;;;;;;;15.68;100.00;97369.04;110133;1241;69332;-67
2023/09/15 02:49:17;;;;;;;;;;;;;;;15.70;100.00;97366.71;110162;1241;59743;-67
2023/09/15 02:51:48;;;;;;;;;;;;;;;15.73;100.00;97367.81;110128;1245;59706;-69
2023/09/15 02:54:18;;;;;;;;;;;;;;;15.75;100.00;97364.70;110176;1243;71220;-66
2023/09/15 02:56:48;;;;;;;;;;;;;;;15.78;100.00;97370.75;110146;1244;69327;-69
2023/09/15 02:59:23;;;;;;;;;;;;;;;15.79;100.00;97371.11;110201;1245;69109;-69
2023/09/15 03:01:53;;;;;;;;;;;;;;;15.82;100.00;97374.56;110173;1245;59702;-69
2023/09/15 03:04:25;;;;;;;;;;;;;;;15.84;100.00;97375.66;110237;1243;59658;-69
2023/09/15 03:06:56;;;;;;;;;;;;;;;15.86;100.00;97374.23;110198;1241;71406;-69
2023/09/15 03:09:29;;;;;;;;;;;;;;;15.86;100.00;97372.77;110129;1244;69324;-66
2023/09/15 03:11:59;;;;;;;;;;;;;;;15.87;100.00;97376.00;110115;1244;68351;-69
2023/09/15 03:14:30;;;;;;;;;;;;;;;15.90;100.00;97380.17;110243;1241;59711;-68
2023/09/15 03:17:00;;;;;;;;;;;;;;;15.92;100.00;97380.84;110282;1246;59704;-70
2023/09/15 03:19:32;;;;;;;;;;;;;;;15.95;100.00;97383.91;110191;1241;71344;-69
2023/09/15 03:22:01;;;;;;;;;;;;;;;15.96;100.00;97388.64;110377;1241;69827;-69
2023/09/15 03:24:34;;;;;;;;;;;;;;;15.98;100.00;97389.04;110150;1244;69359;-68
2023/09/15 03:27:04;;;;;;;;;;;;;;;15.98;100.00;97394.45;110156;1243;59692;-67
2023/09/15 03:29:33;;;;;;;;;;;;;;;15.96;100.00;97396.25;110162;1243;59647;-69
2023/09/15 03:32:03;;;;;;;;;;;;;;;15.89;100.00;97401.83;110183;1244;71312;-68
2023/09/15 03:34:32;;;;;;;;;;;;;;;15.81;100.00;97404.35;110135;1244;69248;-70
2023/09/15 03:37:04;;;;;;;;;;;;;;;15.74;100.00;97405.83;110131;1244;69519;-68
2023/09/15 03:39:35;;;;;;;;;;;;;;;15.71;100.00;97409.14;110156;1245;59738;-67
2023/09/15 03:42:05;;;;;;;;;;;;;;;15.68;100.00;97413.96;110170;1241;59683;-67
2023/09/15 03:44:35;;;;;;;;;;;;;;;15.69;100.00;97418.81;110149;1241;71363;-69
2023/09/15 03:47:05;;;;;;;;;;;;;;;15.70;100.00;97421.66;110117;1244;68585;-67
2023/09/15 03:49:35;;;;;;;;;;;;;;;15.73;100.00;97422.33;110111;1245;69058;-67
2023/09/15 03:52:05;;;;;;;;;;;;;;;15.75;100.00;97419.68;110112;1245;59664;-67
2023/09/15 03:54:35;;;;;;;;;;;;;;;15.77;100.00;97423.84;110196;1241;59681;-67
2023/09/15 03:57:05;;;;;;;;;;;;;;;15.79;100.00;97426.70;110141;1244;72012;-67
2023/09/15 03:59:35;;;;;;;;;;;;;;;15.82;100.00;97430.30;110143;1241;69301;-67
2023/09/15 04:02:07;;;;;;;;;;;;;;;15.85;100.00;97436.96;110145;1241;68537;-67
2023/09/15 04:04:39;;;;;;;;;;;;;;;15.88;100.00;97438.82;110180;1241;59735;-67
2023/09/15 04:07:08;;;;;;;;;;;;;;;15.89;100.00;97439.27;110167;1244;59660;-68
2023/09/15 04:09:37;;;;;;;;;;;;;;;15.90;100.00;97440.73;110129;1244;71996;-67
2023/09/15 04:12:07;;;;;;;;;;;;;;;15.92;100.00;97441.96;110110;1244;70207;-66
2023/09/15 04:14:37;;;;;;;;;;;;;;;15.93;100.00;97444.31;110151;1241;69278;-67
2023/09/15 04:17:07;;;;;;;;;;;;;;;15.95;100.00;97445.04;110133;1245;59686;-68
2023/09/15 04:19:37;;;;;;;;;;;;;;;15.98;100.00;97444.08;110154;1241;59689;-68
2023/09/15 04:22:08;;;;;;;;;;;;;;;16.00;100.00;97444.91;110076;1243;71691;-67
2023/09/15 04:24:39;;;;;;;;;;;;;;;16.02;100.00;97447.48;110126;1241;68829;-68
2023/09/15 04:27:11;;;;;;;;;;;;;;;16.05;100.00;97447.25;110144;1241;68517;-67
2023/09/15 04:29:53;;;;;;;;;;;;;;;16.08;100.00;97450.17;110150;1245;59753;-69
2023/09/15 04:32:24;;;;;;;;;;;;;;;16.09;100.00;97453.40;110125;1244;59684;-67
2023/09/15 04:34:54;;;;;;;;;;;;;;;16.11;100.00;97458.66;110116;1241;71343;-69
2023/09/15 04:37:24;;;;;;;;;;;;;;;16.12;100.00;97461.03;110163;1241;69203;-67
2023/09/15 04:39:54;;;;;;;;;;;;;;;16.13;100.00;97465.51;110155;1245;69398;-67
2023/09/15 04:42:23;;;;;;;;;;;;;;;16.13;100.00;97467.92;110156;1242;59615;-68
2023/09/15 04:44:53;;;;;;;;;;;;;;;16.14;100.00;97464.15;110156;1241;59687;-68
2023/09/15 04:47:36;;;;;;;;;;;;;;;16.17;100.00;97463.39;110187;1245;70642;-69
2023/09/15 04:50:11;;;;;;;;;;;;;;;16.20;100.00;97463.33;110326;1241;69835;-70
2023/09/15 04:52:42;;;;;;;;;;;;;;;16.24;100.00;97465.42;110211;1243;69890;-69
2023/09/15 04:55:12;;;;;;;;;;;;;;;16.27;100.00;97465.70;110186;1243;59677;-70
2023/09/15 04:57:43;;;;;;;;;;;;;;;16.32;100.00;97466.15;110250;1241;59649;-68
2023/09/15 05:00:23;;;;;;;;;;;;;;;16.37;100.00;97471.77;110200;1243;71990;-70
2023/09/15 05:03:00;;;;;;;;;;;;;;;16.42;100.00;97472.21;110181;1244;70307;-70
2023/09/15 05:05:30;;;;;;;;;;;;;;;16.46;100.00;97471.83;110226;1245;69315;-70
2023/09/15 05:07:59;;;;;;;;;;;;;;;16.50;100.00;97472.69;110319;1241;59671;-69
2023/09/15 05:10:29;;;;;;;;;;;;;;;16.53;100.00;97474.62;110131;1245;59743;-67
2023/09/15 05:13:00;;;;;;;;;;;;;;;16.58;100.00;97477.52;110151;1241;71416;-68
2023/09/15 05:15:29;;;;;;;;;;;;;;;16.63;100.00;97479.90;110183;1245;69444;-67
2023/09/15 05:18:00;;;;;;;;;;;;;;;16.67;100.00;97478.58;110127;1245;68810;-68
2023/09/15 05:20:31;;;;;;;;;;;;;;;16.73;100.00;97474.17;110155;1241;59728;-67
2023/09/15 05:23:00;;;;;;;;;;;;;;;16.91;100.00;97471.59;110085;1245;59685;-69
2023/09/15 05:25:29;;;;;;;;;;;;;;;17.23;100.00;97473.65;110147;1246;71310;-73
2023/09/15 05:27:58;;;;;;;;;;;;;;;17.47;100.00;97475.04;110121;1245;69400;-67
2023/09/15 05:30:30;;;;;;;;;;;;;;;17.67;100.00;97477.20;110161;1241;68672;-66
2023/09/15 05:33:00;;;;;;;;;;;;;;;17.90;100.00;97483.95;110116;1245;59708;-67
2023/09/15 05:35:30;;;;;;;;;;;;;;;17.96;100.00;97481.52;110155;1244;59689;-66
2023/09/15 05:37:59;;;;;;;;;;;;;;;17.96;100.00;97481.92;110174;1244;70643;-66
2023/09/15 05:40:28;;;;;;;;;;;;;;;17.95;100.00;97484.83;110160;1245;69246;-67
2023/09/15 05:42:58;;;;;;;;;;;;;;;17.91;100.00;97488.73;110122;1251;69708;-66
2023/09/15 05:45:27;;;;;;;;;;;;;;;17.85;100.00;97490.05;110156;1245;59608;-67
2023/09/15 05:47:56;;;;;;;;;;;;;;;17.85;100.00;97492.77;110142;1245;60053;-67
2023/09/15 05:50:25;;;;;;;;;;;;;;;17.83;100.00;97490.49;110189;1245;71951;-66
2023/09/15 05:52:55;;;;;;;;;;;;;;;17.82;100.00;97490.87;110149;1245;69118;-69
2023/09/15 05:55:24;;;;;;;;;;;;;;;17.81;100.00;97493.14;110142;1245;69269;-70
2023/09/15 05:57:53;;;;;;;;;;;;;;;17.79;100.00;97493.77;110159;1245;59727;-72
2023/09/15 06:00:22;;;;;;;;;;;;;;;17.78;100.00;97490.55;110189;1245;59678;-72
2023/09/15 06:02:52;;;;;;;;;;;;;;;17.74;100.00;97493.30;110185;1243;71196;-70
2023/09/15 06:05:24;;;;;;;;;;;;;;;17.72;100.00;97493.61;110145;1241;68165;-70
2023/09/15 06:07:54;;;;;;;;;;;;;;;17.75;100.00;97495.77;110210;1241;69288;-69
2023/09/15 06:10:24;;;;;;;;;;;;;;;17.81;100.00;97496.44;110099;1245;59671;-69
2023/09/15 06:12:53;;;;;;;;;;;;;;;17.89;100.00;97500.06;110153;1243;59678;-71
2023/09/15 06:15:25;;;;;;;;;;;;;;;17.96;100.00;97506.55;110329;1245;70370;-71
2023/09/15 06:17:54;;;;;;;;;;;;;;;18.08;100.00;97506.52;110139;1244;69271;-70
2023/09/15 06:20:23;;;;;;;;;;;;;;;18.21;100.00;97508.65;110154;1243;69284;-69
2023/09/15 06:22:54;;;;;;;;;;;;;;;18.39;100.00;97506.79;110242;1245;59735;-70
2023/09/15 06:25:23;;;;;;;;;;;;;;;18.64;100.00;97505.96;110255;1245;59673;-70
2023/09/15 06:27:52;;;;;;;;;;;;;;;18.89;100.00;97507.05;110161;1241;71792;-70
2023/09/15 06:30:30;;;;;;;;;;;;;;;19.15;100.00;97504.50;110236;1241;69184;-68
2023/09/15 06:33:00;;;;;;;;;;;;;;;19.42;100.00;97504.23;110124;1241;69207;-72
2023/09/15 06:35:29;;;;;;;;;;;;;;;19.58;100.00;97509.08;110088;1245;59677;-70
2023/09/15 06:37:57;;;;;;;;;;;;;;;19.50;100.00;97510.42;110152;1244;59657;-70
2023/09/15 06:40:26;;;;;;;;;;;;;;;19.21;100.00;97509.14;110281;1241;71439;-71
2023/09/15 06:42:55;;;;;;;;;;;;;;;19.31;100.00;97513.48;110138;1244;70052;-70
2023/09/15 06:45:25;;;;;;;;;;;;;;;19.47;100.00;97511.81;110244;1241;69302;-71
2023/09/15 06:47:55;;;;;;;;;;;;;;;19.82;100.00;97515.79;110182;1252;59816;-73
2023/09/15 06:50:25;;;;;;;;;;;;;;;20.17;100.00;97522.90;110225;1245;59628;-70
2023/09/15 06:52:54;;;;;;;;;;;;;;;20.48;100.00;97526.08;110184;1242;71201;-79
2023/09/15 06:55:23;;;;;;;;;;;;;;;20.71;100.00;97529.90;110266;1245;69047;-73
2023/09/15 06:57:52;;;;;;;;;;;;;;;20.81;100.00;97533.17;110088;1241;69298;-76
2023/09/15 07:00:23;;;;;;;;;;;;;;;20.97;100.00;97535.79;110123;1246;59696;-73
2023/09/15 07:02:51;;;;;;;;;;;;;;;21.02;100.00;97539.69;110178;1245;59673;-77
2023/09/15 07:05:21;;;;;;;;;;;;;;;20.81;100.00;97539.69;110187;1245;72084;-76
2023/09/15 07:07:50;;;;;;;;;;;;;;;20.73;100.00;97543.27;110336;1243;69888;-79
2023/09/15 07:10:19;;;;;;;;;;;;;;;20.38;100.00;97537.98;110252;1241;69209;-78
2023/09/15 07:12:48;;;;;;;;;;;;;;;20.50;100.00;97541.79;110250;1245;59662;-73
2023/09/15 07:15:16;;;;;;;;;;;;;;;20.49;100.00;97541.32;110234;1241;59697;-71
2023/09/15 07:17:46;;;;;;;;;;;;;;;20.47;100.00;97542.32;110141;1245;71474;-73
2023/09/15 07:20:15;;;;;;;;;;;;;;;20.37;100.00;97546.04;110299;1245;69850;-72
2023/09/15 07:22:44;;;;;;;;;;;;;;;20.17;100.00;97547.91;110120;1244;68524;-72
2023/09/15 07:25:13;;;;;;;;;;;;;;;20.02;100.00;97545.89;110251;1242;59732;-73
2023/09/15 07:27:42;;;;;;;;;;;;;;;20.09;100.00;97548.63;110251;1241;59700;-71
2023/09/15 07:30:14;;;;;;;;;;;;;;;20.15;100.00;97550.74;110312;1242;71276;-70
2023/09/15 07:32:43;;;;;;;;;;;;;;;20.14;100.00;97557.77;110236;1247;69599;-70
2023/09/15 07:35:14;;;;;;;;;;;;;;;20.03;100.00;97560.01;110263;1243;69771;-68
2023/09/15 07:37:43;;;;;;;;;;;;;;;20.00;100.00;97563.92;110259;1240;59687;-73
2023/09/15 07:40:12;;;;;;;;;;;;;;;20.01;100.00;97563.82;110214;1242;59627;-74
2023/09/15 07:42:41;;;;;;;;;;;;;;;20.09;100.00;97565.73;110363;1243;71349;-82
2023/09/15 07:45:09;;;;;;;;;;;;;;;20.09;100.00;97557.61;110328;1242;69742;-80
2023/09/15 07:47:38;;;;;;;;;;;;;;;20.09;100.00;97561.13;110341;1244;69260;-81
2023/09/15 07:50:08;;;;;;;;;;;;;;;20.20;100.00;97557.17;110886;1242;59648;-81
2023/09/15 07:52:36;;;;;;;;;;;;;;;20.40;100.00;97561.86;110396;1242;59631;-82
2023/09/15 07:55:06;;;;;;;;;;;;;;;20.48;100.00;97562.16;110373;1245;70611;-73
2023/09/15 08:00:38;;;;;;;;;;;;;;;21.17;100.00;97564.48;110190;1241;69282;-80
2023/09/15 08:03:08;;;;;;;;;;;;;;;21.38;98.58;97566.98;110363;1243;59699;-76
2023/09/15 08:05:37;;;;;;;;;;;;;;;21.33;97.42;97569.23;110215;1242;59663;-75
2023/09/15 08:08:07;;;;;;;;;;;;;;;21.21;97.73;97574.91;110161;1241;71237;-72
2023/09/15 08:10:37;;;;;;;;;;;;;;;21.19;97.78;97570.29;110205;1243;68574;-73
2023/09/15 08:13:06;;;;;;;;;;;;;;;21.34;97.32;97575.05;110220;1249;69301;-77
2023/09/15 08:15:35;;;;;;;;;;;;;;;21.65;96.96;97572.52;110240;1241;59785;-71
2023/09/15 08:18:05;;;;;;;;;;;;;;;22.01;93.90;97575.08;110302;1248;59699;-71
2023/09/15 08:20:34;;;;;;;;;;;;;;;22.40;91.90;97572.80;110297;1247;72328;-71
2023/09/15 08:23:03;;;;;;;;;;;;;;;22.76;89.25;97571.55;110279;1243;69141;-72
2023/09/15 08:25:32;;;;;;;;;;;;;;;23.08;85.72;97571.05;110268;1245;69267;-69
2023/09/15 08:28:03;;;;;;;;;;;;;;;23.18;84.42;97575.27;110275;1241;59636;-68
2023/09/15 08:30:33;;;;;;;;;;;;;;;23.38;83.36;97572.53;110197;1241;59605;-73
2023/09/15 08:33:03;;;;;;;;;;;;;;;23.87;85.65;97570.23;110207;1243;71405;-72
2023/09/15 08:35:33;;;;;;;;;;;;;;;24.47;81.00;97565.13;110159;1242;69247;-76
2023/09/15 08:38:04;;;;;;;;;;;;;;;24.86;78.36;97562.23;109862;1242;645318;-69
2023/09/15 08:40:37;;;;;;;;;;;;;;;24.82;74.14;97562.00;110198;1248;59706;-72
2023/09/15 08:43:06;;;;;;;;;;;;;;;24.93;73.87;97559.20;110301;1244;59679;-72
2023/09/15 08:45:36;;;;;;;;;;;;;;;25.07;72.96;97560.58;110218;1247;71998;-70
2023/09/15 08:48:06;;;;;;;;;;;;;;;25.04;72.83;97559.06;110375;1243;69117;-69
2023/09/15 08:50:38;;;;;;;;;;;;;;;25.09;71.63;97557.20;110215;1243;69095;-68
2023/09/15 08:53:08;;;;;;;;;;;;;;;24.34;73.13;97558.06;110253;1241;59686;-68
2023/09/15 08:55:37;;;;;;;;;;;;;;;24.49;74.10;97556.51;110221;1242;59736;-69
2023/09/15 08:58:07;;;;;;;;;;;;;;;24.91;73.26;97556.98;110298;1242;71960;-69
2023/09/15 09:00:36;;;;;;;;;;;;;;;25.30;72.13;97558.32;110325;1243;69818;-67
2023/09/15 09:03:06;;;;;;;;;;;;;;;25.34;69.85;97560.10;110160;1244;69657;-68
2023/09/15 09:05:36;;;;;;;;;;;;;;;25.46;71.23;97557.08;110199;1242;59766;-67
2023/09/15 09:08:05;;;;;;;;;;;;;;;25.69;69.27;97553.84;110189;1244;59669;-68
2023/09/15 09:10:34;;;;;;;;;;;;;;;25.84;67.66;97555.42;110210;1241;71522;-69
2023/09/15 09:13:03;;;;;;;;;;;;;;;25.49;67.05;97551.90;110307;1241;67584;-67
2023/09/15 09:15:33;;;;;;;;;;;;;;;25.41;67.42;97554.03;110298;1242;69358;-67
2023/09/15 09:18:02;;;;;;;;;;;;;;;25.48;67.08;97553.59;110179;1242;59799;-69
2023/09/15 09:20:36;;;;;;;;;;;;;;;25.81;66.96;97549.98;110230;1240;59746;-69
2023/09/15 09:23:06;;;;;;;;;;;;;;;26.25;65.52;97545.51;110349;1242;71788;-68
2023/09/15 09:25:35;;;;;;;;;;;;;;;26.77;62.96;97545.22;110239;1242;68836;-69
2023/09/15 09:28:04;;;;;;;;;;;;;;;27.52;62.21;97541.84;110267;1242;69873;-68
2023/09/15 09:30:33;;;;;;;;;;;;;;;27.99;59.39;97538.08;110318;1242;60121;-70
2023/09/15 09:33:03;;;;;;;;;;;;;;;28.35;58.27;97535.24;110270;1242;59671;-67
2023/09/15 09:35:32;;;;;;;;;;;;;;;28.96;57.34;97532.86;110292;1242;72025;-67
2023/09/15 09:38:02;;;;;;;;;;;;;;;29.68;56.49;97531.09;110219;1241;69211;-68
2023/09/15 09:40:33;;;;;;;;;;;;;;;29.81;53.97;97534.71;110200;1242;69255;-67
2023/09/15 09:43:03;;;;;;;;;;;;;;;30.53;51.54;97536.38;110205;1242;59727;-69
2023/09/15 09:45:32;;;;;;;;;;;;;;;31.08;49.32;97540.64;110212;1242;59691;-68
2023/09/15 09:48:02;;;;;;;;;;;;;;;30.80;47.37;97537.77;110225;1243;71835;-66
2023/09/15 09:50:34;;;;;;;;;;;;;;;31.12;50.55;97541.85;110232;1242;69795;-68
2023/09/15 09:53:07;;;;;;;;;;;;;;;30.91;47.87;97539.70;110268;1247;69288;-69
2023/09/15 09:55:36;;;;;;;;;;;;;;;30.73;48.67;97537.64;110241;1244;59750;-70
2023/09/15 09:58:06;;;;;;;;;;;;;;;30.36;49.36;97537.92;110259;1242;59669;-70
2023/09/15 10:00:36;;;;;;;;;;;;;;;30.01;50.47;97539.73;110248;1247;70612;-69
2023/09/15 10:03:05;;;;;;;;;;;;;;;29.80;50.29;97540.61;110375;1241;68611;-69
2023/09/15 10:05:36;;;;;;;;;;;;;;;29.50;51.37;97538.98;110353;1241;69250;-69
2023/09/15 10:08:05;;;;;;;;;;;;;;;29.80;50.76;97535.44;110380;1244;59748;-70
2023/09/15 10:10:40;;;;;;;;;;;;;;;30.00;49.95;97535.61;110205;1241;59730;-69
2023/09/15 10:13:13;;;;;;;;;;;;;;;30.35;50.70;97527.77;110223;1243;71265;-69
2023/09/15 10:15:43;;;;;;;;;;;;;;;30.13;48.92;97527.34;110290;1242;69466;-70
2023/09/15 10:18:14;;;;;;;;;;;;;;;29.79;50.34;97525.41;110267;1242;69108;-69
2023/09/15 10:20:44;;;;;;;;;;;;;;;29.62;50.71;97525.05;110145;1242;59696;-69
2023/09/15 10:23:13;;;;;;;;;;;;;;;29.64;50.61;97532.27;110176;1242;59688;-68
2023/09/15 10:25:44;;;;;;;;;;;;;;;29.40;51.56;97534.63;110353;1241;70464;-70
2023/09/15 10:28:13;;;;;;;;;;;;;;;28.70;52.51;97538.35;110293;1243;68543;-69
2023/09/15 10:31:04;;;;;;;;;;;;;;;28.33;53.27;97541.09;110141;1244;69586;-67
2023/09/15 10:33:37;;;;;;;;;;;;;;;28.30;53.24;97539.59;110133;1245;59750;-69
2023/09/15 10:36:11;;;;;;;;;;;;;;;28.19;53.46;97537.41;110206;1242;59685;-68
2023/09/15 10:38:41;;;;;;;;;;;;;;;28.46;53.09;97532.59;110178;1243;72139;-67
2023/09/15 10:41:11;;;;;;;;;;;;;;;28.66;51.85;97537.05;110173;1246;69779;-68
2023/09/15 10:43:47;;;;;;;;;;;;;;;28.88;51.40;97535.98;110159;1242;69376;-67
2023/09/15 10:46:16;;;;;;;;;;;;;;;29.22;51.06;97535.88;110225;1247;59735;-69
2023/09/15 10:48:46;;;;;;;;;;;;;;;28.96;49.87;97530.67;110332;1242;59634;-68
2023/09/15 10:51:18;;;;;;;;;;;;;;;29.39;49.47;97528.52;110188;1242;71981;-70
2023/09/15 10:53:49;;;;;;;;;;;;;;;29.49;48.56;97520.67;110289;1241;69172;-70
2023/09/15 10:56:18;;;;;;;;;;;;;;;30.40;47.59;97515.69;110226;1241;69895;-68
2023/09/15 10:58:47;;;;;;;;;;;;;;;31.30;44.79;97511.67;110256;1244;59647;-70
2023/09/15 11:01:18;;;;;;;;;;;;;;;32.11;43.26;97504.48;110393;1241;60056;-69
2023/09/15 11:03:48;;;;;;;;;;;;;;;32.42;42.13;97502.77;110250;1242;71953;-70
2023/09/15 11:06:17;;;;;;;;;;;;;;;32.90;43.23;97497.91;110299;1242;69316;-70
2023/09/15 11:08:48;;;;;;;;;;;;;;;33.52;42.73;97500.41;110336;1241;69603;-69
2023/09/15 11:11:18;;;;;;;;;;;;;;;33.27;41.37;97505.82;110385;1242;59742;-69
2023/09/15 11:13:47;;;;;;;;;;;;;;;33.79;40.05;97503.80;110282;1242;60044;-69
2023/09/15 11:16:16;;;;;;;;;;;;;;;33.40;39.25;97497.27;110388;1245;71402;-68
2023/09/15 11:18:45;;;;;;;;;;;;;;;33.33;40.08;97495.42;110384;1242;69820;-77
2023/09/15 11:21:15;;;;;;;;;;;;;;;33.81;40.21;97493.45;110432;1242;68511;-72
2023/09/15 11:23:47;;;;;;;;;;;;;;;34.09;39.18;97489.50;110380;1241;59714;-74
2023/09/15 11:26:16;;;;;;;;;;;;;;;34.85;37.82;97487.30;110436;1241;59731;-73
2023/09/15 11:28:56;;;;;;;;;;;;;;;34.62;36.05;97489.40;110339;1244;71492;-73
2023/09/15 11:31:25;;;;;;;;;;;;;;;35.10;35.81;97488.27;110410;1243;69822;-72
2023/09/15 11:33:55;;;;;;;;;;;;;;;35.83;35.21;97491.89;110444;1242;70400;-72
2023/09/15 11:36:24;;;;;;;;;;;;;;;36.05;34.83;97490.53;110419;1242;59740;-74
2023/09/15 11:38:55;;;;;;;;;;;;;;;36.36;33.78;97491.05;110379;1242;59669;-72
2023/09/15 11:41:35;;;;;;;;;;;;;;;36.31;31.88;97490.83;110259;1244;72012;-72
2023/09/15 11:44:06;;;;;;;;;;;;;;;36.91;32.38;97491.54;110284;1242;68497;-72
2023/09/15 11:46:39;;;;;;;;;;;;;;;36.88;31.12;97491.77;110250;1244;68632;-72
2023/09/15 11:49:09;;;;;;;;;;;;;;;36.81;32.22;97495.94;110255;1242;59711;-72
2023/09/15 11:51:38;;;;;;;;;;;;;;;36.17;32.64;97498.34;110370;1241;59654;-71
2023/09/15 11:54:07;;;;;;;;;;;;;;;35.47;33.26;97498.91;110332;1242;72415;-71
2023/09/15 11:56:36;;;;;;;;;;;;;;;34.73;35.03;97491.10;111117;1242;69396;-72
2023/09/15 11:59:08;;;;;;;;;;;;;;;33.58;37.68;97491.73;110349;1241;69255;-73
2023/09/15 12:01:37;;;;;;;;;;;;;;;33.05;38.53;97487.04;110365;1249;59823;-71
2023/09/15 12:04:05;;;;;;;;;;;;;;;32.42;39.45;97481.48;110325;1242;59692;-71
2023/09/15 12:06:42;;;;;;;;;;;;;;;31.74;40.17;97478.89;110371;1241;70601;-71
2023/09/15 12:09:12;;;;;;;;;;;;;;;31.31;40.50;97484.13;110305;1240;69245;-71
2023/09/15 12:11:41;;;;;;;;;;;;;;;30.49;41.82;97479.17;110334;1242;69863;-72
2023/09/15 12:14:12;;;;;;;;;;;;;;;30.14;43.18;97480.67;110304;1242;59774;-71
2023/09/15 12:16:45;;;;;;;;;;;;;;;29.93;43.87;97479.38;110320;1242;59641;-70
2023/09/15 12:19:17;;;;;;;;;;;;;;;29.51;43.62;97477.75;110250;1242;71375;-71
2023/09/15 12:21:50;;;;;;;;;;;;;;;28.72;44.98;97476.77;110355;1247;69211;-72
2023/09/15 12:24:22;;;;;;;;;;;;;;;28.15;46.22;97473.66;110351;1243;69271;-73
2023/09/15 12:26:51;;;;;;;;;;;;;;;27.86;47.41;97480.20;110324;1242;59680;-73
2023/09/15 12:29:21;;;;;;;;;;;;;;;27.51;48.56;97475.33;110324;1242;59669;-70
2023/09/15 12:31:50;;;;;;;;;;;;;;;27.19;51.29;97481.80;110320;1240;70626;-69
2023/09/15 12:34:19;;;;;;;;;;;;;;;27.41;50.89;97477.46;110279;1242;69826;-69
2023/09/15 12:36:53;;;;;;;;;;;;;;;27.42;51.44;97474.11;110336;1240;68548;-72
2023/09/15 12:39:22;;;;;;;;;;;;;;;27.53;50.72;97474.65;110272;1242;59737;-70
2023/09/15 12:41:58;;;;;;;;;;;;;;;27.49;50.83;97471.34;110294;1244;59679;-71
2023/09/15 12:44:42;;;;;;;;;;;;;;;27.35;51.89;97475.73;110335;1241;70615;-71
2023/09/15 12:47:11;;;;;;;;;;;;;;;27.24;52.00;97476.98;110318;1242;69983;-71
2023/09/15 12:49:42;;;;;;;;;;;;;;;27.13;51.07;97480.10;110288;1243;69277;-70
2023/09/15 12:52:10;;;;;;;;;;;;;;;27.12;50.76;97477.42;110328;1243;60139;-72